Brier, Washington
Current Conditions -  °F | °C
As of 4:53 AM on Wednesday 26 Nov 2014 (Local Time) from KPAE Reporting Station
Overcast Overcast  
Wind Chill: 55°   Ceiling: 1100
Heat Index: 55°   Visibility: 10mi
Dew Point: 52°   Wind: 16mph
Humidity: 89%   Direction: 200°SSW
Pressure: 30.11"   Gusts: 26mph
Location:  47.8111°N, 122.283°W
Report Text: KPAE 261253Z AUTO 20014G23KT 10SM OVC011 13/11 A3011 RMK AO2 PK WND 20029/1241 SLP197 T01280111
Loading
Personal Weather Stations






























Interactive Weather Map New forecast layout! Learn more

10-Day Weather Forecast

Advertisements
Track Severe Weather on mobile